• Join FlightAware (Why Join?)
  • Login
  • US Flag 
01:22AM EDT


 

Airport Tracker/Info


-or-


 

Live Flight TrackerFlight Track Log ✈ USC110 ✈ 23-Jul-2013 ✈ KLCK - KCLT

Flight Track Log - Related Links

Times and Time Zones

All times are in EDT time to prevent confusion due to time zone crossing. See the USC110 flight status page for this flight to view local times or setup timezone preferences in your user account.

Time Position Orientation Groundspeed Altitude Reporting Facility
EDT Latitude Longitude Course Direction KTS MPH feet Rate Location/Type
05:27AM 39.8178 -82.9269 71° East 68 78 1,000  Level Indianapolis Center
05:28AM 39.8275 -82.8903 71° East 130 150 1,700 780 Climbing Indianapolis Center
05:29AM 39.8039 -82.8789 160° South 129 148 2,500 960 Climbing Indianapolis Center
05:30AM 39.7736 -82.8706 168° South 116 133 3,400 900 Climbing Indianapolis Center
05:31AM 39.7417 -82.8617 168° South 115 132 4,400 960 Climbing Indianapolis Center
05:32AM 39.7097 -82.8514 166° South 117 135 5,400 840 Climbing Indianapolis Center
05:33AM 39.6839 -82.8414 163° South 115 132 6,200 780 Climbing Indianapolis Center
05:34AM 39.6506 -82.8314 167° South 120 138 7,100 840 Climbing Indianapolis Center
05:35AM 39.6167 -82.8208 167° South 123 142 8,000 840 Climbing Indianapolis Center
05:36AM 39.5831 -82.8108 167° South 123 142 8,800 480 Climbing Indianapolis Center
05:37AM 39.5436 -82.7972 165° South 142 163 9,000 120 Climbing Indianapolis Center
05:38AM 39.4956 -82.7822 166° South 172 198 9,100  Climbing Indianapolis Center
05:39AM 39.4469 -82.7678 167° South 176 203 9,000 -60 Descending Indianapolis Center
05:40AM 39.3992 -82.7519 166° South 175 201 9,000  Level Indianapolis Center
05:41AM 39.3531 -82.7358 165° South 176 203 9,000  Level Indianapolis Center
05:42AM 39.3028 -82.7189 165° South 178 205 9,000  Level Indianapolis Center
05:43AM 39.2544 -82.7047 167° South 177 204 9,000  Level Indianapolis Center
05:44AM 39.2064 -82.6883 165° South 176 203 9,000  Level Indianapolis Center
05:45AM 39.1522 -82.6708 166° South 176 203 9,000  Level Indianapolis Center
05:46AM 39.1047 -82.6547 165° South 176 203 9,000  Level Indianapolis Center
05:47AM 39.0564 -82.6414 168° South 178 205 9,000  Level Indianapolis Center
05:48AM 39.0094 -82.6261 166° South 175 201 9,000  Level Indianapolis Center
05:49AM 38.9617 -82.6097 165° South 177 204 9,000 -480 Level Indianapolis Center
05:50AM 38.9100 -82.5928 166° South 189 217 8,100 -540 Descending Indianapolis Center
05:51AM 38.8575 -82.5767 167° South 191 220 8,000 -60 Descending Indianapolis Center
05:52AM 38.8106 -82.5622 167° South 176 203 8,000  Level Indianapolis Center
05:53AM 38.7639 -82.5464 165° South 174 200 8,000  Level Indianapolis Center
05:54AM 38.7164 -82.5306 165° South 175 201 8,000  Level Indianapolis Center
05:55AM 38.6697 -82.5167 167° South 174 200 8,000 240 Level Indianapolis Center
05:56AM 38.6244 -82.5031 167° South 171 197 8,500 480 Climbing Indianapolis Center
05:57AM 38.5931 -82.4881 160° South 128 147 9,000 240 Climbing Indianapolis Center
05:58AM 38.5500 -82.4761 168° South 149 171 9,100  Climbing Indianapolis Center
05:59AM 38.5033 -82.4622 167° South 165 190 9,000 -60 Descending Indianapolis Center
06:00AM 38.4544 -82.4483 167° South 175 201 9,000  Level Indianapolis Center
06:01AM 38.4069 -82.4328 166° South 176 203 9,000  Level Indianapolis Center
06:02AM 38.3592 -82.4169 165° South 176 203 9,000  Level Indianapolis Center
06:03AM 38.3106 -82.4025 167° South 179 206 9,000  Level Indianapolis Center
06:04AM 38.2622 -82.3869 166° South 177 204 9,000  Level Indianapolis Center
06:05AM 38.2056 -82.3703 167° South 177 204 9,000  Level Indianapolis Center
06:06AM 38.1569 -82.3553 166° South 179 206 9,000  Level Indianapolis Center
06:07AM 38.1083 -82.3392 165° South 180 207 9,000  Level Indianapolis Center
06:08AM 38.0597 -82.3247 167° South 180 207 9,000  Level Indianapolis Center
06:09AM 38.0108 -82.3100 167° South 180 207 9,000  Level Indianapolis Center
06:10AM 37.9614 -82.2947 166° South 182 209 9,000  Level Indianapolis Center
06:11AM 37.9128 -82.2794 166° South 180 207 9,000  Level Indianapolis Center
06:12AM 37.8658 -82.2644 166° South 176 203 9,000  Level Indianapolis Center
06:13AM 37.8172 -82.2506 167° South 177 204 9,000  Level Indianapolis Center
06:14AM 37.7683 -82.2350 166° South 179 206 9,000  Level Indianapolis Center
06:15AM 37.7183 -82.2197 166° South 182 209 9,000  Level Indianapolis Center
06:16AM 37.6700 -82.2050 166° South 180 207 9,000  Level Indianapolis Center
06:17AM 37.6200 -82.1883 165° South 182 209 9,000  Level Indianapolis Center
06:18AM 37.5711 -82.1742 167° South 181 208 9,000  Level Indianapolis Center
06:19AM 37.5219 -82.1583 166° South 181 208 9,000  Level Indianapolis Center
06:20AM 37.4722 -82.1436 167° South 183 211 9,000  Level Indianapolis Center
06:21AM 37.4233 -82.1283 166° South 181 208 9,100  Climbing Indianapolis Center
06:22AM 37.3772 -82.1017 155° Southeast 183 211 9,000  Descending Indianapolis Center
06:23AM 37.3286 -82.0800 160° South 185 213 9,100  Climbing Indianapolis Center
06:24AM 37.2792 -82.0694 170° South 182 209 9,000 -60 Descending Indianapolis Center
06:25AM 37.2297 -82.0542 166° South 182 209 9,000  Level Indianapolis Center
06:26AM 37.1728 -82.0369 166° South 180 207 9,000  Level Indianapolis Center
06:27AM 37.1228 -82.0225 167° South 182 209 9,000  Level Indianapolis Center
06:28AM 37.0731 -82.0081 167° South 182 209 9,000  Level Indianapolis Center
06:29AM 37.0239 -81.9925 166° South 181 208 9,000  Level Indianapolis Center
06:30AM 36.9739 -81.9792 168° South 183 211 9,000  Level Indianapolis Center
06:31AM 36.9250 -81.9650 167° South 180 207 9,000  Level Indianapolis Center
06:32AM 36.8750 -81.9508 167° South 183 211 9,000  Level Indianapolis Center
06:33AM 36.8258 -81.9378 168° South 181 208 9,000  Level Indianapolis Center
06:34AM 36.7764 -81.9217 165° South 182 209 9,000  Level Indianapolis Center
06:35AM 36.7156 -81.9075 169° South 185 213 9,000  Level Atlanta Center
06:36AM 36.6653 -81.8933 167° South 185 213 9,000  Level Atlanta Center
06:37AM 36.6150 -81.8792 167° South 185 213 9,000  Level Atlanta Center
06:38AM 36.5667 -81.8650 167° South 185 213 9,000  Level Atlanta Center
06:39AM 36.5142 -81.8483 166° South 185 213 9,000  Level Atlanta Center